createdAt,value
2023-05-06T00:00:23.706Z,33.80
2023-05-06T00:01:23.735Z,33.79
2023-05-06T00:02:23.855Z,33.79
2023-05-06T00:03:23.955Z,33.76
2023-05-06T00:04:23.914Z,33.80
2023-05-06T00:05:23.929Z,33.75
2023-05-06T00:06:23.909Z,33.80
2023-05-06T00:07:23.949Z,33.78
2023-05-06T00:08:23.997Z,33.76
2023-05-06T00:09:24.048Z,33.80
2023-05-06T00:10:24.087Z,33.82
2023-05-06T00:11:24.135Z,33.82
2023-05-06T00:12:24.179Z,33.80
2023-05-06T00:13:24.252Z,33.84
2023-05-06T00:14:24.280Z,33.79
2023-05-06T00:15:24.327Z,33.81
2023-05-06T00:16:24.379Z,33.82
2023-05-06T00:17:24.438Z,33.83
2023-05-06T00:18:24.462Z,33.81
2023-05-06T00:19:24.516Z,33.83
2023-05-06T00:20:24.561Z,33.84
2023-05-06T00:21:24.603Z,33.84
2023-05-06T00:22:24.660Z,33.81
2023-05-06T00:23:24.701Z,33.83
2023-05-06T00:24:24.771Z,33.81
2023-05-06T00:25:24.799Z,33.85
2023-05-06T00:26:24.846Z,33.83
2023-05-06T00:27:24.888Z,33.86
2023-05-06T00:28:24.954Z,33.84
2023-05-06T00:29:25.078Z,33.86
2023-05-06T00:30:25.040Z,33.81
2023-05-06T00:31:25.103Z,33.88
2023-05-06T00:32:25.151Z,33.83
2023-05-06T00:33:25.165Z,33.83
2023-05-06T00:34:25.212Z,33.81
2023-05-06T00:35:25.262Z,33.82
2023-05-06T00:36:25.300Z,33.81
2023-05-06T00:37:25.360Z,33.87
2023-05-06T00:38:25.406Z,33.86
2023-05-06T00:39:25.451Z,33.83
2023-05-06T00:40:25.499Z,33.85
2023-05-06T00:41:25.553Z,33.86
2023-05-06T00:42:25.636Z,33.82
2023-05-06T00:43:25.661Z,33.85
2023-05-06T00:44:25.706Z,33.82
2023-05-06T00:45:25.838Z,33.85
2023-05-06T00:46:25.870Z,33.81
2023-05-06T00:47:25.836Z,33.81
2023-05-06T00:48:25.886Z,33.83
2023-05-06T00:49:25.939Z,33.85
2023-05-06T00:50:25.984Z,33.85
2023-05-06T00:51:26.028Z,33.82
2023-05-06T00:52:26.078Z,33.83
2023-05-06T00:53:26.124Z,33.82
2023-05-06T00:54:26.180Z,33.83
2023-05-06T00:55:26.224Z,33.82
2023-05-06T00:56:26.269Z,33.79
2023-05-06T00:57:26.324Z,33.82
2023-05-06T00:58:26.360Z,33.85
2023-05-06T00:59:26.416Z,33.87
2023-05-06T01:00:26.528Z,33.78
2023-05-06T01:01:26.556Z,33.83
2023-05-06T01:02:36.260Z,33.83
2023-05-06T01:03:26.603Z,33.78
2023-05-06T01:04:26.563Z,33.86
2023-05-06T01:05:26.631Z,33.85
2023-05-06T01:06:26.551Z,33.85
2023-05-06T01:07:26.557Z,33.83
2023-05-06T01:08:26.550Z,33.83
2023-05-06T01:09:26.550Z,33.89
2023-05-06T01:10:26.537Z,33.85
2023-05-06T01:11:26.533Z,33.88
2023-05-06T01:12:26.524Z,33.85
2023-05-06T01:13:26.529Z,33.86
2023-05-06T01:14:26.517Z,33.87
2023-05-06T01:15:26.518Z,33.82
2023-05-06T01:16:26.549Z,33.83
2023-05-06T01:17:26.567Z,33.85
2023-05-06T01:18:26.519Z,33.85
2023-05-06T01:19:26.515Z,33.86
2023-05-06T01:20:26.520Z,33.89
2023-05-06T01:21:26.525Z,33.83
2023-05-06T01:22:26.514Z,33.81
2023-05-06T01:23:26.535Z,33.87
2023-05-06T01:24:26.518Z,33.82
2023-05-06T01:25:26.524Z,33.86
2023-05-06T01:26:26.551Z,33.89
2023-05-06T01:27:26.521Z,33.87
2023-05-06T01:28:26.532Z,33.87
2023-05-06T01:29:26.602Z,33.86
2023-05-06T01:30:26.646Z,33.89
2023-05-06T01:31:26.741Z,33.89
2023-05-06T01:32:26.775Z,33.89
2023-05-06T01:33:27.225Z,33.85
2023-05-06T01:34:26.850Z,33.87
2023-05-06T01:35:26.919Z,33.91
2023-05-06T01:36:26.971Z,33.89
2023-05-06T01:37:27.020Z,33.91
2023-05-06T01:38:27.068Z,33.90
2023-05-06T01:39:27.153Z,33.94
2023-05-06T01:40:27.174Z,33.89
2023-05-06T01:41:27.225Z,33.90
2023-05-06T01:42:27.287Z,33.90
2023-05-06T01:43:27.335Z,33.90
2023-05-06T01:44:27.378Z,33.92
2023-05-06T01:45:27.437Z,33.90
2023-05-06T01:46:27.527Z,33.91
2023-05-06T01:47:27.560Z,33.90
2023-05-06T01:48:27.594Z,33.90
2023-05-06T01:49:27.750Z,33.98
2023-05-06T01:50:27.707Z,33.91
2023-05-06T01:51:27.824Z,33.92
2023-05-06T01:52:27.819Z,33.93
2023-05-06T01:53:27.871Z,33.92
2023-05-06T01:54:27.929Z,33.95
2023-05-06T01:55:27.987Z,33.94
2023-05-06T01:56:28.047Z,33.95
2023-05-06T01:57:28.105Z,33.96
2023-05-06T01:58:28.164Z,33.99
2023-05-06T01:59:29.662Z,33.96
2023-05-06T02:00:28.199Z,33.98
2023-05-06T02:01:28.231Z,33.99
2023-05-06T02:02:28.249Z,33.96
2023-05-06T02:03:28.330Z,33.95
2023-05-06T02:04:28.186Z,33.95
2023-05-06T02:05:28.209Z,33.98
2023-05-06T02:06:28.182Z,33.96
2023-05-06T02:07:28.172Z,33.95
2023-05-06T02:08:28.176Z,33.95
2023-05-06T02:09:28.166Z,33.98
2023-05-06T02:10:28.164Z,33.96
2023-05-06T02:11:28.175Z,33.93
2023-05-06T02:12:28.151Z,34.00
2023-05-06T02:13:28.145Z,33.95
2023-05-06T02:14:28.134Z,33.98
2023-05-06T02:15:28.139Z,33.95
2023-05-06T02:16:28.164Z,33.98
2023-05-06T02:17:28.191Z,34.00
2023-05-06T02:18:28.132Z,33.95
2023-05-06T02:19:28.111Z,33.95
2023-05-06T02:20:28.105Z,33.96
2023-05-06T02:21:28.203Z,33.96
2023-05-06T02:22:28.096Z,33.96
2023-05-06T02:23:28.099Z,33.94
2023-05-06T02:24:28.091Z,33.95
2023-05-06T02:25:28.092Z,33.99
2023-05-06T02:26:28.125Z,33.96
2023-05-06T02:27:28.206Z,33.93
2023-05-06T02:28:28.233Z,33.94
2023-05-06T02:29:28.282Z,33.95
2023-05-06T02:30:28.348Z,33.92
2023-05-06T02:31:28.478Z,33.95
2023-05-06T02:32:28.454Z,33.96
2023-05-06T02:33:28.502Z,33.96
2023-05-06T02:34:28.556Z,33.96
2023-05-06T02:35:28.620Z,33.94
2023-05-06T02:36:28.674Z,33.92
2023-05-06T02:37:28.912Z,33.94
2023-05-06T02:38:28.791Z,33.98
2023-05-06T02:39:28.856Z,33.95
2023-05-06T02:40:28.918Z,33.95
2023-05-06T02:41:28.976Z,33.96
2023-05-06T02:42:29.055Z,33.94
2023-05-06T02:43:29.091Z,33.93
2023-05-06T02:44:29.161Z,33.95
2023-05-06T02:45:29.265Z,33.93
2023-05-06T02:46:29.236Z,33.93
2023-05-06T02:47:29.358Z,33.99
2023-05-06T02:48:29.348Z,33.92
2023-05-06T02:49:29.401Z,33.93
2023-05-06T02:50:29.461Z,33.95
2023-05-06T02:51:29.513Z,33.92
2023-05-06T02:52:29.593Z,33.93
2023-05-06T02:53:29.785Z,33.93
2023-05-06T02:54:29.692Z,33.98
2023-05-06T02:55:29.748Z,33.94
2023-05-06T02:56:29.800Z,33.92
2023-05-06T02:57:29.863Z,33.92
2023-05-06T02:58:29.919Z,33.93
2023-05-06T02:59:29.976Z,33.89
2023-05-06T03:00:30.034Z,33.93
2023-05-06T03:01:30.183Z,33.91
2023-05-06T03:02:30.145Z,33.89
2023-05-06T03:03:30.202Z,33.96
2023-05-06T03:04:30.274Z,33.95
2023-05-06T03:05:30.321Z,33.92
2023-05-06T03:06:30.360Z,33.89
2023-05-06T03:07:30.425Z,33.92
2023-05-06T03:08:30.469Z,33.92
2023-05-06T03:09:30.626Z,33.92
2023-05-06T03:10:30.585Z,33.89
2023-05-06T03:11:30.635Z,33.88
2023-05-06T03:12:30.703Z,33.87
2023-05-06T03:13:30.749Z,33.92
2023-05-06T03:14:30.808Z,33.89
2023-05-06T03:15:30.874Z,33.88
2023-05-06T03:16:30.994Z,33.92
2023-05-06T03:17:31.047Z,33.92
2023-05-06T03:18:31.043Z,33.88
2023-05-06T03:19:31.105Z,33.94
2023-05-06T03:20:31.181Z,33.88
2023-05-06T03:21:31.274Z,33.89
2023-05-06T03:22:31.295Z,33.90
2023-05-06T03:23:31.349Z,33.88
2023-05-06T03:24:31.410Z,33.93
2023-05-06T03:25:31.579Z,33.89
2023-05-06T03:26:31.528Z,33.85
2023-05-06T03:27:31.593Z,33.89
2023-05-06T03:28:31.647Z,33.88
2023-05-06T03:29:31.697Z,33.89
2023-05-06T03:30:31.765Z,33.89
2023-05-06T03:31:31.833Z,33.93
2023-05-06T03:32:31.909Z,33.92
2023-05-06T03:33:31.937Z,33.85
2023-05-06T03:34:32.001Z,33.91
2023-05-06T03:35:32.075Z,33.89
2023-05-06T03:36:32.134Z,33.91
2023-05-06T03:37:32.192Z,33.91
2023-05-06T03:38:32.254Z,33.92
2023-05-06T03:39:32.313Z,33.94
2023-05-06T03:40:32.380Z,33.92
2023-05-06T03:41:32.576Z,33.89
2023-05-06T03:42:32.503Z,33.89
2023-05-06T03:43:32.567Z,33.92
2023-05-06T03:44:32.637Z,33.92
2023-05-06T03:45:32.717Z,33.94
2023-05-06T03:46:32.844Z,33.92
2023-05-06T03:47:32.820Z,33.93
2023-05-06T03:48:32.896Z,33.89
2023-05-06T03:49:32.943Z,33.91
2023-05-06T03:50:33.029Z,33.92
2023-05-06T03:51:33.066Z,33.89
2023-05-06T03:52:33.130Z,33.91
2023-05-06T03:53:33.195Z,33.87
2023-05-06T03:54:33.259Z,33.92
2023-05-06T03:55:33.347Z,33.89
2023-05-06T03:56:33.374Z,33.92
2023-05-06T03:57:33.452Z,33.93
2023-05-06T03:58:33.494Z,33.90
2023-05-06T03:59:33.545Z,33.93
2023-05-06T04:00:33.599Z,33.89
2023-05-06T04:01:33.650Z,33.89
2023-05-06T04:02:33.772Z,33.88
2023-05-06T04:03:33.912Z,33.90
2023-05-06T04:04:33.837Z,33.89
2023-05-06T04:05:33.915Z,33.92
2023-05-06T04:06:33.958Z,33.90
2023-05-06T04:07:34.046Z,33.89
2023-05-06T04:08:34.091Z,33.92
2023-05-06T04:09:34.171Z,33.88
2023-05-06T04:10:34.221Z,33.92
2023-05-06T04:11:34.276Z,33.87
2023-05-06T04:12:34.400Z,33.89
2023-05-06T04:13:34.550Z,33.90
2023-05-06T04:14:34.476Z,33.90
2023-05-06T04:15:34.561Z,33.89
2023-05-06T04:16:34.624Z,33.88
2023-05-06T04:17:34.688Z,33.92
2023-05-06T04:18:34.712Z,33.90
2023-05-06T04:19:34.769Z,33.91
2023-05-06T04:20:34.855Z,33.89
2023-05-06T04:21:34.903Z,33.94
2023-05-06T04:22:34.960Z,33.92
2023-05-06T04:23:35.037Z,33.92
2023-05-06T04:24:35.094Z,33.93
2023-05-06T04:25:35.160Z,33.90
2023-05-06T04:26:35.213Z,33.93
2023-05-06T04:27:35.282Z,33.94
2023-05-06T04:28:35.348Z,33.93
2023-05-06T04:29:35.496Z,33.95
2023-05-06T04:30:35.459Z,33.92
2023-05-06T04:31:35.560Z,33.93
2023-05-06T04:32:35.634Z,33.92
2023-05-06T04:33:35.679Z,33.94
2023-05-06T04:34:35.718Z,33.97
2023-05-06T04:35:35.778Z,33.89
2023-05-06T04:36:35.845Z,33.93
2023-05-06T04:37:35.905Z,33.93
2023-05-06T04:38:35.997Z,33.89
2023-05-06T04:39:36.034Z,33.95
2023-05-06T04:40:36.130Z,33.89
2023-05-06T04:41:36.164Z,33.92
2023-05-06T04:42:36.230Z,33.94
2023-05-06T04:43:36.296Z,33.92
2023-05-06T04:44:36.359Z,33.91
2023-05-06T04:45:36.625Z,33.95
2023-05-06T04:46:36.487Z,33.95
2023-05-06T04:47:36.663Z,33.98
2023-05-06T04:48:36.617Z,33.94
2023-05-06T04:49:36.694Z,33.90
2023-05-06T04:50:36.745Z,33.95
2023-05-06T04:51:36.821Z,33.95
2023-05-06T04:52:36.875Z,34.01
2023-05-06T04:53:36.944Z,33.94
2023-05-06T04:54:37.008Z,33.95
2023-05-06T04:55:37.090Z,33.95
2023-05-06T04:56:37.144Z,33.93
2023-05-06T04:57:37.205Z,33.95
2023-05-06T04:58:37.270Z,33.91
2023-05-06T04:59:37.329Z,33.98
2023-05-06T05:00:37.410Z,33.95
2023-05-06T05:01:37.715Z,33.98
2023-05-06T05:02:37.686Z,33.94
2023-05-06T05:03:37.659Z,34.01
2023-05-06T05:04:37.674Z,34.00
2023-05-06T05:05:37.754Z,33.98
2023-05-06T05:06:37.804Z,33.97
2023-05-06T05:07:37.870Z,34.01
2023-05-06T05:08:37.932Z,34.00
2023-05-06T05:09:37.987Z,33.98
2023-05-06T05:10:38.049Z,34.02
2023-05-06T05:11:38.123Z,34.18
2023-05-06T05:12:38.208Z,34.39
2023-05-06T05:13:38.232Z,34.43
2023-05-06T05:14:38.293Z,34.63
2023-05-06T05:15:38.367Z,34.64
2023-05-06T05:16:38.467Z,34.70
2023-05-06T05:17:38.646Z,34.82
2023-05-06T05:18:38.563Z,34.94
2023-05-06T05:19:38.628Z,35.19
2023-05-06T05:20:38.701Z,35.33
2023-05-06T05:21:38.764Z,35.29
2023-05-06T05:22:38.845Z,35.30
2023-05-06T05:23:38.881Z,35.42
2023-05-06T05:24:38.987Z,35.42
2023-05-06T05:25:39.024Z,35.52
2023-05-06T05:26:39.080Z,35.60
2023-05-06T05:27:39.821Z,35.78
2023-05-06T05:28:39.182Z,35.78
2023-05-06T05:29:39.237Z,35.83
2023-05-06T05:30:39.312Z,35.87
2023-05-06T05:31:39.392Z,36.17
2023-05-06T05:32:39.470Z,36.21
2023-05-06T05:33:39.702Z,36.27
2023-05-06T05:34:39.570Z,36.42
2023-05-06T05:35:39.643Z,36.50
2023-05-06T05:36:39.710Z,36.46
2023-05-06T05:37:39.790Z,36.58
2023-05-06T05:38:39.855Z,36.58
2023-05-06T05:39:39.926Z,36.67
2023-05-06T05:40:39.991Z,36.76
2023-05-06T05:41:40.070Z,36.77
2023-05-06T05:42:40.122Z,36.85
2023-05-06T05:43:40.191Z,37.00
2023-05-06T05:44:40.259Z,36.94
2023-05-06T05:45:40.319Z,37.02
2023-05-06T05:46:40.458Z,37.01
2023-05-06T05:47:40.475Z,37.11
2023-05-06T05:48:40.524Z,37.14
2023-05-06T05:49:40.619Z,37.17
2023-05-06T05:50:40.665Z,37.26
2023-05-06T05:51:40.740Z,37.34
2023-05-06T05:52:40.809Z,37.39
2023-05-06T05:53:40.890Z,37.43
2023-05-06T05:54:40.966Z,37.53
2023-05-06T05:55:41.019Z,37.48
2023-05-06T05:56:41.092Z,37.55
2023-05-06T05:57:41.166Z,37.58
2023-05-06T05:58:41.236Z,37.65
2023-05-06T05:59:41.313Z,37.66
2023-05-06T06:00:41.395Z,37.68
2023-05-06T06:01:41.839Z,37.63
2023-05-06T06:02:41.576Z,37.74
2023-05-06T06:03:41.803Z,37.78
2023-05-06T06:04:41.697Z,37.78
2023-05-06T06:05:41.772Z,37.86
2023-05-06T06:06:41.825Z,37.87
2023-05-06T06:07:41.890Z,37.86
2023-05-06T06:08:41.957Z,37.84
2023-05-06T06:09:42.042Z,37.87
2023-05-06T06:10:42.142Z,37.94
2023-05-06T06:11:42.200Z,37.99
2023-05-06T06:12:42.260Z,38.01
2023-05-06T06:13:42.315Z,38.00
2023-05-06T06:14:42.382Z,38.23
2023-05-06T06:15:42.459Z,38.28
2023-05-06T06:16:42.570Z,38.40
2023-05-06T06:17:42.615Z,38.45
2023-05-06T06:18:42.677Z,38.38
2023-05-06T06:19:42.745Z,38.55
2023-05-06T06:20:42.808Z,38.47
2023-05-06T06:21:42.896Z,38.54
2023-05-06T06:22:42.923Z,38.63
2023-05-06T06:23:43.000Z,38.63
2023-05-06T06:24:43.051Z,38.69
2023-05-06T06:25:43.124Z,38.81
2023-05-06T06:26:43.189Z,38.75
2023-05-06T06:27:43.262Z,38.72
2023-05-06T06:28:43.311Z,38.73
2023-05-06T06:29:43.370Z,38.79
2023-05-06T06:30:43.441Z,38.73
2023-05-06T06:31:43.540Z,38.69
2023-05-06T06:32:43.601Z,38.59
2023-05-06T06:33:43.653Z,38.70
2023-05-06T06:34:43.726Z,38.67
2023-05-06T06:35:43.794Z,38.71
2023-05-06T06:36:43.854Z,38.64
2023-05-06T06:37:44.053Z,38.65
2023-05-06T06:38:44.068Z,38.53
2023-05-06T06:39:44.171Z,38.66
2023-05-06T06:40:44.139Z,38.63
2023-05-06T06:41:44.239Z,38.64
2023-05-06T06:42:44.323Z,38.68
2023-05-06T06:43:44.356Z,38.75
2023-05-06T06:44:44.857Z,38.73
2023-05-06T06:45:44.510Z,38.78
2023-05-06T06:46:44.560Z,38.76
2023-05-06T06:47:44.672Z,38.88
2023-05-06T06:48:44.713Z,38.91
2023-05-06T06:49:44.791Z,38.98
2023-05-06T06:50:44.860Z,39.00
2023-05-06T06:51:44.939Z,39.01
2023-05-06T06:52:45.016Z,39.00
2023-05-06T06:53:45.136Z,38.91
2023-05-06T06:54:45.160Z,38.89
2023-05-06T06:55:45.232Z,39.01
2023-05-06T06:56:45.270Z,39.02
2023-05-06T06:57:45.322Z,39.00
2023-05-06T06:58:45.410Z,39.10
2023-05-06T06:59:45.471Z,39.08
2023-05-06T07:00:45.558Z,39.22
2023-05-06T07:01:45.672Z,39.13
2023-05-06T07:02:45.709Z,39.21
2023-05-06T07:03:45.799Z,39.10
2023-05-06T07:04:45.930Z,39.07
2023-05-06T07:05:45.908Z,39.16
2023-05-06T07:06:45.987Z,39.16
2023-05-06T07:07:46.072Z,39.17
2023-05-06T07:08:46.138Z,39.25
2023-05-06T07:09:46.353Z,39.26
2023-05-06T07:10:46.280Z,39.38
2023-05-06T07:11:46.363Z,39.28
2023-05-06T07:12:46.479Z,39.25
2023-05-06T07:13:46.506Z,39.26
2023-05-06T07:14:46.588Z,39.36
2023-05-06T07:15:46.657Z,39.29
2023-05-06T07:16:47.682Z,39.36
2023-05-06T07:17:46.744Z,39.37
2023-05-06T07:18:46.725Z,39.26
2023-05-06T07:19:46.740Z,39.28
2023-05-06T07:20:46.730Z,39.25
2023-05-06T07:21:46.729Z,39.34
2023-05-06T07:22:46.734Z,39.30
2023-05-06T07:23:46.736Z,39.38
2023-05-06T07:24:46.736Z,39.43
2023-05-06T07:25:46.789Z,39.43
2023-05-06T07:26:46.742Z,39.45
2023-05-06T07:27:46.756Z,39.42
2023-05-06T07:28:46.751Z,39.49
2023-05-06T07:29:46.740Z,39.51
2023-05-06T07:30:46.752Z,39.45
2023-05-06T07:31:46.745Z,39.45
2023-05-06T07:32:46.797Z,39.45
2023-05-06T07:33:46.738Z,39.45
2023-05-06T07:34:46.728Z,39.39
2023-05-06T07:35:46.725Z,39.51
2023-05-06T07:36:46.712Z,39.45
2023-05-06T07:37:46.713Z,39.39
2023-05-06T07:38:46.733Z,39.43
2023-05-06T07:39:46.688Z,39.47
2023-05-06T07:40:46.736Z,39.45
2023-05-06T07:41:46.834Z,39.44
2023-05-06T07:42:46.871Z,39.47
2023-05-06T07:43:46.946Z,39.47
2023-05-06T07:44:47.004Z,39.52
2023-05-06T07:45:47.071Z,39.51
2023-05-06T07:46:47.228Z,39.53
2023-05-06T07:47:47.236Z,39.57
2023-05-06T07:48:47.271Z,39.54
2023-05-06T07:49:47.336Z,39.53
2023-05-06T07:50:47.401Z,39.61
2023-05-06T07:51:47.495Z,39.68
2023-05-06T07:52:47.532Z,39.65
2023-05-06T07:53:47.594Z,39.68
2023-05-06T07:54:47.657Z,39.67
2023-05-06T07:55:47.715Z,39.78
2023-05-06T07:56:47.774Z,39.72
2023-05-06T07:57:47.935Z,39.67
2023-05-06T07:58:47.903Z,39.73
2023-05-06T07:59:47.956Z,39.65
2023-05-06T08:00:48.020Z,39.66
2023-05-06T08:01:48.078Z,39.60
2023-05-06T08:02:48.260Z,39.70
2023-05-06T08:03:48.271Z,39.65
2023-05-06T08:04:50.882Z,39.72
2023-05-06T08:05:48.245Z,39.79
2023-05-06T08:06:48.244Z,39.83
2023-05-06T08:07:48.250Z,39.76
2023-05-06T08:08:48.260Z,39.72
2023-05-06T08:09:48.266Z,39.70
2023-05-06T08:10:48.254Z,39.69
2023-05-06T08:11:48.257Z,39.74
2023-05-06T08:12:48.323Z,39.71
2023-05-06T08:13:48.366Z,39.74
2023-05-06T08:14:48.256Z,39.79
2023-05-06T08:15:48.291Z,39.83
2023-05-06T08:16:48.343Z,39.83
2023-05-06T08:17:48.369Z,39.88
2023-05-06T08:18:48.267Z,39.86
2023-05-06T08:19:48.258Z,39.90
2023-05-06T08:20:48.249Z,39.88
2023-05-06T08:21:48.250Z,39.93
2023-05-06T08:22:48.395Z,39.79
2023-05-06T08:23:48.247Z,39.88
2023-05-06T08:24:48.242Z,39.67
2023-05-06T08:25:48.239Z,39.63
2023-05-06T08:26:48.270Z,39.60
2023-05-06T08:27:48.313Z,39.63
2023-05-06T08:28:48.365Z,39.57
2023-05-06T08:29:48.507Z,39.60
2023-05-06T08:30:48.507Z,39.61
2023-05-06T08:31:48.552Z,39.53
2023-05-06T08:32:48.568Z,39.59
2023-05-06T08:33:48.602Z,39.58
2023-05-06T08:34:48.635Z,39.58
2023-05-06T08:35:48.683Z,39.53
2023-05-06T08:36:48.715Z,39.48
2023-05-06T08:37:48.755Z,39.41
2023-05-06T08:38:48.796Z,39.52
2023-05-06T08:39:48.841Z,39.48
2023-05-06T08:40:48.886Z,39.35
2023-05-06T08:41:48.926Z,39.35
2023-05-06T08:42:48.988Z,39.37
2023-05-06T08:43:49.025Z,39.47
2023-05-06T08:44:49.052Z,39.54
2023-05-06T08:45:49.128Z,39.52
2023-05-06T08:46:49.130Z,39.62
2023-05-06T08:47:49.222Z,39.63
2023-05-06T08:48:49.219Z,39.68
2023-05-06T08:49:49.301Z,39.68
2023-05-06T08:50:49.298Z,39.65
2023-05-06T08:51:49.346Z,39.65
2023-05-06T08:52:49.385Z,39.77
2023-05-06T08:53:49.477Z,39.69
2023-05-06T08:54:49.477Z,39.65
2023-05-06T08:55:49.580Z,39.64
2023-05-06T08:56:49.562Z,39.81
2023-05-06T08:57:49.608Z,39.74
2023-05-06T08:58:49.657Z,39.75
2023-05-06T08:59:49.707Z,39.78
2023-05-06T09:00:49.787Z,39.74
2023-05-06T09:01:49.952Z,39.70
2023-05-06T09:02:49.923Z,39.78
2023-05-06T09:03:49.945Z,39.74
2023-05-06T09:04:49.936Z,39.63
2023-05-06T09:05:49.985Z,39.64
2023-05-06T09:06:50.032Z,39.69
2023-05-06T09:07:50.082Z,39.62
2023-05-06T09:08:50.185Z,39.60
2023-05-06T09:09:50.164Z,39.59
2023-05-06T09:10:50.213Z,39.64
2023-05-06T09:11:50.262Z,39.61
2023-05-06T09:12:50.317Z,39.67
2023-05-06T09:13:50.339Z,39.69
2023-05-06T09:14:50.392Z,39.71
2023-05-06T09:15:50.448Z,39.74
2023-05-06T09:16:50.571Z,39.71
2023-05-06T09:17:50.609Z,39.67
2023-05-06T09:18:50.588Z,39.74
2023-05-06T09:19:50.639Z,39.64
2023-05-06T09:20:50.696Z,39.70
2023-05-06T09:21:50.729Z,39.69
2023-05-06T09:22:50.785Z,39.70
2023-05-06T09:23:50.836Z,39.69
2023-05-06T09:24:50.888Z,39.73
2023-05-06T09:25:50.934Z,39.69
2023-05-06T09:26:50.982Z,39.75
2023-05-06T09:27:51.045Z,39.73
2023-05-06T09:28:51.102Z,39.77
2023-05-06T09:29:51.145Z,39.73
2023-05-06T09:30:51.242Z,39.86
2023-05-06T09:31:51.241Z,39.71
2023-05-06T09:32:51.320Z,39.82
2023-05-06T09:33:51.459Z,39.81
2023-05-06T09:34:51.415Z,39.78
2023-05-06T09:35:51.459Z,39.88
2023-05-06T09:36:51.519Z,39.88
2023-05-06T09:37:51.567Z,39.81
2023-05-06T09:38:51.618Z,39.87
2023-05-06T09:39:51.667Z,39.92
2023-05-06T09:40:51.723Z,39.92
2023-05-06T09:41:51.789Z,39.84
2023-05-06T09:42:51.816Z,39.85
2023-05-06T09:43:51.884Z,39.98
2023-05-06T09:44:51.927Z,40.00
2023-05-06T09:45:51.998Z,39.96
2023-05-06T09:46:52.086Z,39.89
2023-05-06T09:47:52.134Z,39.87
2023-05-06T09:48:52.158Z,39.94
2023-05-06T09:49:52.314Z,39.92
2023-05-06T09:50:52.285Z,39.98
2023-05-06T09:51:52.342Z,39.97
2023-05-06T09:52:52.395Z,39.98
2023-05-06T09:53:52.460Z,39.97
2023-05-06T09:54:52.503Z,39.98
2023-05-06T09:55:52.566Z,40.01
2023-05-06T09:56:52.619Z,40.03
2023-05-06T09:57:52.675Z,39.99
2023-05-06T09:58:52.752Z,40.08
2023-05-06T09:59:52.783Z,40.13
2023-05-06T10:00:52.844Z,40.18
2023-05-06T10:01:52.955Z,40.23
2023-05-06T10:02:53.086Z,40.30
2023-05-06T10:03:53.125Z,40.32
2023-05-06T10:04:53.260Z,40.38
2023-05-06T10:05:53.154Z,40.44
2023-05-06T10:06:53.189Z,40.54
2023-05-06T10:07:53.253Z,40.57
2023-05-06T10:08:53.307Z,40.64
2023-05-06T10:09:53.377Z,40.68
2023-05-06T10:10:53.423Z,40.66
2023-05-06T10:11:53.498Z,40.74
2023-05-06T10:12:53.572Z,40.81
2023-05-06T10:13:53.600Z,40.81
2023-05-06T10:14:53.655Z,40.82
2023-05-06T10:15:53.719Z,40.80
2023-05-06T10:16:53.771Z,40.84
2023-05-06T10:17:53.855Z,40.88
2023-05-06T10:18:53.893Z,40.89
2023-05-06T10:19:53.941Z,40.94
2023-05-06T10:20:53.997Z,40.97
2023-05-06T10:21:54.137Z,40.94
2023-05-06T10:22:54.097Z,40.97
2023-05-06T10:23:54.202Z,41.02
2023-05-06T10:24:54.213Z,40.96
2023-05-06T10:25:54.272Z,40.99
2023-05-06T10:26:54.333Z,41.06
2023-05-06T10:27:54.389Z,41.09
2023-05-06T10:28:54.440Z,41.10
2023-05-06T10:29:54.494Z,40.99
2023-05-06T10:30:54.548Z,41.05
2023-05-06T10:31:54.721Z,40.97
2023-05-06T10:32:54.672Z,41.05
2023-05-06T10:33:54.706Z,41.13
2023-05-06T10:34:54.774Z,41.06
2023-05-06T10:35:54.815Z,41.05
2023-05-06T10:36:54.869Z,41.01
2023-05-06T10:37:55.069Z,41.04
2023-05-06T10:38:55.022Z,41.05
2023-05-06T10:39:55.030Z,40.96
2023-05-06T10:40:55.089Z,40.99
2023-05-06T10:41:55.133Z,40.89
2023-05-06T10:42:55.182Z,40.82
2023-05-06T10:43:55.233Z,40.74
2023-05-06T10:44:55.294Z,40.70
2023-05-06T10:45:55.392Z,40.77
2023-05-06T10:46:55.389Z,40.74
2023-05-06T10:47:55.480Z,40.76
2023-05-06T10:48:55.468Z,40.71
2023-05-06T10:49:55.510Z,40.83
2023-05-06T10:50:55.561Z,40.77
2023-05-06T10:51:55.593Z,40.84
2023-05-06T10:52:55.657Z,40.78
2023-05-06T10:53:55.725Z,40.65
2023-05-06T10:54:55.735Z,40.46
2023-05-06T10:55:55.789Z,40.52
2023-05-06T10:56:55.837Z,40.58
2023-05-06T10:57:55.880Z,40.47
2023-05-06T10:58:55.919Z,40.26
2023-05-06T10:59:56.004Z,40.32
2023-05-06T11:00:56.031Z,39.96
2023-05-06T11:01:56.052Z,40.06
2023-05-06T11:02:56.272Z,40.13
2023-05-06T11:03:56.138Z,40.00
2023-05-06T11:04:56.177Z,40.13
2023-05-06T11:05:56.221Z,40.05
2023-05-06T11:06:56.264Z,40.19
2023-05-06T11:07:56.316Z,40.13
2023-05-06T11:08:56.366Z,40.13
2023-05-06T11:09:56.494Z,40.09
2023-05-06T11:10:56.447Z,40.09
2023-05-06T11:11:56.479Z,40.07
2023-05-06T11:12:56.557Z,40.08
2023-05-06T11:13:56.576Z,40.08
2023-05-06T11:14:56.618Z,40.04
2023-05-06T11:15:56.661Z,39.99
2023-05-06T11:16:56.767Z,39.99
2023-05-06T11:17:56.856Z,39.99
2023-05-06T11:18:56.776Z,39.97
2023-05-06T11:19:56.816Z,39.97
2023-05-06T11:20:56.858Z,39.97
2023-05-06T11:21:56.903Z,39.91
2023-05-06T11:22:56.936Z,39.91
2023-05-06T11:23:56.981Z,39.97
2023-05-06T11:24:57.013Z,39.93
2023-05-06T11:25:57.092Z,39.97
2023-05-06T11:26:57.101Z,39.99
2023-05-06T11:27:57.130Z,39.92
2023-05-06T11:28:57.172Z,40.01
2023-05-06T11:29:57.207Z,39.98
2023-05-06T11:30:57.263Z,39.86
2023-05-06T11:31:57.277Z,40.02
2023-05-06T11:32:57.361Z,39.94
2023-05-06T11:33:57.349Z,39.92
2023-05-06T11:34:57.394Z,39.91
2023-05-06T11:35:57.428Z,39.92
2023-05-06T11:36:57.459Z,39.94
2023-05-06T11:37:57.541Z,40.02
2023-05-06T11:38:57.533Z,40.08
2023-05-06T11:39:57.568Z,39.99
2023-05-06T11:40:57.602Z,39.97
2023-05-06T11:41:57.859Z,40.04
2023-05-06T11:42:57.674Z,40.06
2023-05-06T11:43:57.720Z,40.08
2023-05-06T11:44:57.755Z,40.06
2023-05-06T11:45:57.835Z,40.04
2023-05-06T11:46:57.832Z,40.10
2023-05-06T11:47:57.914Z,40.07
2023-05-06T11:48:57.922Z,40.04
2023-05-06T11:49:57.953Z,40.07
2023-05-06T11:50:58.027Z,40.06
2023-05-06T11:51:58.131Z,40.02
2023-05-06T11:52:58.082Z,39.99
2023-05-06T11:53:58.117Z,40.06
2023-05-06T11:54:58.163Z,39.97
2023-05-06T11:55:58.208Z,39.98
2023-05-06T11:56:58.253Z,39.95
2023-05-06T11:57:58.371Z,39.91
2023-05-06T11:58:58.327Z,39.87
2023-05-06T11:59:58.975Z,39.90
2023-05-06T12:00:58.385Z,39.86
2023-05-06T12:01:58.443Z,39.88
2023-05-06T12:02:58.499Z,39.87
2023-05-06T12:03:58.656Z,39.79
2023-05-06T12:04:58.696Z,39.85
2023-05-06T12:05:58.556Z,39.86
2023-05-06T12:06:58.586Z,39.87
2023-05-06T12:07:58.616Z,39.89
2023-05-06T12:08:58.648Z,39.89
2023-05-06T12:09:58.680Z,39.93
2023-05-06T12:10:58.722Z,39.88
2023-05-06T12:11:58.740Z,39.89
2023-05-06T12:12:58.814Z,39.87
2023-05-06T12:13:59.024Z,39.81
2023-05-06T12:14:58.838Z,39.85
2023-05-06T12:15:58.904Z,39.77
2023-05-06T12:16:58.890Z,39.77
2023-05-06T12:17:58.955Z,39.81
2023-05-06T12:18:58.954Z,39.81
2023-05-06T12:19:58.989Z,39.79
2023-05-06T12:20:59.050Z,39.77
2023-05-06T12:21:59.046Z,39.71
2023-05-06T12:22:59.069Z,39.71
2023-05-06T12:23:59.189Z,39.71
2023-05-06T12:24:59.127Z,39.67
2023-05-06T12:25:59.153Z,39.69
2023-05-06T12:26:59.189Z,39.65
2023-05-06T12:27:59.214Z,39.67
2023-05-06T12:28:59.253Z,39.63
2023-05-06T12:29:59.374Z,39.66
2023-05-06T12:30:59.314Z,39.58
2023-05-06T12:31:59.430Z,39.60
2023-05-06T12:32:59.433Z,39.63
2023-05-06T12:34:01.304Z,39.60
2023-05-06T12:34:59.476Z,39.66
2023-05-06T12:35:59.416Z,39.63
2023-05-06T12:36:59.394Z,39.70
2023-05-06T12:37:59.389Z,39.59
2023-05-06T12:38:59.412Z,39.71
2023-05-06T12:39:59.771Z,39.70
2023-05-06T12:40:59.385Z,39.67
2023-05-06T12:41:59.372Z,39.62
2023-05-06T12:42:59.364Z,39.66
2023-05-06T12:43:59.362Z,39.67
2023-05-06T12:44:59.364Z,39.66
2023-05-06T12:45:59.450Z,39.62
2023-05-06T12:46:59.352Z,39.62
2023-05-06T12:47:59.399Z,39.66
2023-05-06T12:48:59.350Z,39.65
2023-05-06T12:49:59.514Z,39.71
2023-05-06T12:50:59.347Z,39.62
2023-05-06T12:51:59.340Z,39.59
2023-05-06T12:52:59.339Z,39.61